createdAt,value
2022-11-01T00:01:10.515Z,989.3
2022-11-01T00:03:37.095Z,989.3
2022-11-01T00:06:03.741Z,989.3
2022-11-01T00:08:28.850Z,989.2
2022-11-01T00:10:55.533Z,989.1
2022-11-01T00:13:22.094Z,989.1
2022-11-01T00:15:48.787Z,989.2
2022-11-01T00:18:15.392Z,989.3
2022-11-01T00:20:41.962Z,989.2
2022-11-01T00:23:08.660Z,989.2
2022-11-01T00:28:01.833Z,989.2
2022-11-01T00:30:28.510Z,989.1
2022-11-01T00:32:55.126Z,989.2
2022-11-01T00:37:48.377Z,989.2
2022-11-01T00:42:41.572Z,989.2
2022-11-01T00:45:06.778Z,989.2
2022-11-01T00:47:31.821Z,989.2
2022-11-01T00:52:25.102Z,989.2
2022-11-01T00:54:51.735Z,989.2
2022-11-01T00:57:18.321Z,989.1
2022-11-01T00:59:44.974Z,989.1
2022-11-01T01:02:11.644Z,989.1
2022-11-01T01:04:38.193Z,989.1
2022-11-01T01:07:04.831Z,989.1
2022-11-01T01:09:31.457Z,989.1
2022-11-01T01:11:58.114Z,989.1
2022-11-01T01:14:24.690Z,989.1
2022-11-01T01:16:51.317Z,989.1
2022-11-01T01:19:16.440Z,989
2022-11-01T01:21:43.139Z,989.1
2022-11-01T01:26:36.347Z,989.1
2022-11-01T01:29:01.440Z,989.1
2022-11-01T01:31:26.595Z,989.1
2022-11-01T01:33:53.191Z,989.1
2022-11-01T01:36:19.841Z,989.1
2022-11-01T01:38:46.444Z,989.1
2022-11-01T01:41:13.065Z,989.1
2022-11-01T01:43:39.765Z,989.1
2022-11-01T01:46:06.314Z,989.1
2022-11-01T01:48:33.075Z,989.1
2022-11-01T01:50:59.554Z,989
2022-11-01T01:53:26.188Z,989
2022-11-01T01:55:51.323Z,989
2022-11-01T01:58:16.470Z,989
2022-11-01T02:00:43.058Z,988.9
2022-11-01T02:03:09.680Z,989
2022-11-01T02:05:36.337Z,989
2022-11-01T02:08:02.953Z,988.9
2022-11-01T02:10:29.594Z,988.9
2022-11-01T02:12:56.174Z,988.9
2022-11-01T02:15:22.794Z,988.9
2022-11-01T02:17:49.421Z,988.9
2022-11-01T02:20:16.098Z,988.9
2022-11-01T02:25:07.807Z,988.9
2022-11-01T02:27:32.924Z,989
2022-11-01T02:29:59.558Z,988.9
2022-11-01T02:32:26.169Z,988.9
2022-11-01T02:34:52.789Z,989
2022-11-01T02:37:19.439Z,988.9
2022-11-01T02:39:46.081Z,988.9
2022-11-01T02:42:12.670Z,988.9
2022-11-01T02:44:39.295Z,989
2022-11-01T02:47:05.926Z,989
2022-11-01T02:49:31.049Z,989
2022-11-01T02:51:56.173Z,988.9
2022-11-01T02:54:22.810Z,989
2022-11-01T02:56:49.458Z,988.9
2022-11-01T02:59:16.041Z,989
2022-11-01T03:01:42.688Z,989
2022-11-01T03:04:09.288Z,989
2022-11-01T03:09:02.530Z,989.2
2022-11-01T03:11:29.166Z,989.1
2022-11-01T03:13:55.779Z,989.2
2022-11-01T03:16:22.408Z,989.3
2022-11-01T03:18:49.027Z,989.3
2022-11-01T03:21:15.659Z,989.3
2022-11-01T03:23:40.785Z,989.3
2022-11-01T03:26:07.408Z,989.3
2022-11-01T03:28:34.017Z,989.3
2022-11-01T03:31:00.710Z,989.3
2022-11-01T03:33:27.262Z,989.4
2022-11-01T03:35:53.908Z,989.4
2022-11-01T03:38:20.536Z,989.4
2022-11-01T03:40:47.135Z,989.4
2022-11-01T03:43:13.757Z,989.4
2022-11-01T03:45:40.388Z,989.4
2022-11-01T03:48:07.029Z,989.5
2022-11-01T03:50:33.625Z,989.6
2022-11-01T03:53:00.249Z,989.7
2022-11-01T03:55:26.873Z,989.7
2022-11-01T03:57:51.997Z,989.7
2022-11-01T04:00:18.628Z,989.7
2022-11-01T04:02:45.233Z,989.8
2022-11-01T04:05:11.869Z,989.8
2022-11-01T04:07:38.493Z,989.9
2022-11-01T04:10:05.116Z,989.8
2022-11-01T04:12:31.740Z,989.9
2022-11-01T04:19:51.632Z,989.9
2022-11-01T04:22:18.249Z,990
2022-11-01T04:24:44.863Z,990
2022-11-01T04:27:11.503Z,990
2022-11-01T04:29:36.598Z,990
2022-11-01T04:32:03.331Z,990.1
2022-11-01T04:39:23.089Z,990.1
2022-11-01T04:41:48.233Z,990.1
2022-11-01T04:44:13.350Z,990.2
2022-11-01T04:46:39.975Z,990.2
2022-11-01T04:51:33.256Z,990.3
2022-11-01T04:53:59.841Z,990.3
2022-11-01T04:56:26.474Z,990.4
2022-11-01T04:58:53.094Z,990.4
2022-11-01T05:01:19.709Z,990.5
2022-11-01T05:03:46.349Z,990.4
2022-11-01T05:06:12.964Z,990.5
2022-11-01T05:08:39.586Z,990.5
2022-11-01T05:11:06.205Z,990.5
2022-11-01T05:13:32.829Z,990.5
2022-11-01T05:15:59.487Z,990.5
2022-11-01T05:18:24.594Z,990.5
2022-11-01T05:20:51.212Z,990.6
2022-11-01T05:23:17.828Z,990.6
2022-11-01T05:25:44.453Z,990.6
2022-11-01T05:28:11.077Z,990.6
2022-11-01T05:30:37.697Z,990.7
2022-11-01T05:33:04.345Z,990.7
2022-11-01T05:35:29.462Z,990.7
2022-11-01T05:37:54.577Z,990.7
2022-11-01T05:40:21.223Z,990.7
2022-11-01T05:42:47.830Z,990.7
2022-11-01T05:45:14.472Z,990.6
2022-11-01T05:47:41.068Z,990.6
2022-11-01T05:50:07.710Z,990.7
2022-11-01T05:52:34.320Z,990.6
2022-11-01T05:55:00.937Z,990.6
2022-11-01T05:57:27.557Z,990.6
2022-11-01T05:59:54.184Z,990.6
2022-11-01T06:02:20.808Z,990.5
2022-11-01T06:04:47.436Z,990.6
2022-11-01T06:07:14.160Z,990.7
2022-11-01T06:09:39.183Z,990.6
2022-11-01T06:12:05.845Z,990.5
2022-11-01T06:14:32.427Z,990.6
2022-11-01T06:19:25.718Z,990.6
2022-11-01T06:21:52.293Z,990.6
2022-11-01T06:24:18.917Z,990.6
2022-11-01T06:26:45.538Z,990.7
2022-11-01T06:29:12.163Z,990.7
2022-11-01T06:34:05.433Z,990.9
2022-11-01T06:36:32.055Z,990.8
2022-11-01T06:41:23.794Z,990.9
2022-11-01T06:43:48.933Z,991
2022-11-01T06:46:15.588Z,991.1
2022-11-01T06:48:40.679Z,991.1
2022-11-01T06:51:07.332Z,991.3
2022-11-01T06:53:33.930Z,991.4
2022-11-01T06:56:00.551Z,991.4
2022-11-01T06:58:27.170Z,991.4
2022-11-01T07:00:53.810Z,991.5
2022-11-01T07:03:20.421Z,991.5
2022-11-01T07:05:47.044Z,991.5
2022-11-01T07:08:13.716Z,991.7
2022-11-01T07:13:05.436Z,991.6
2022-11-01T07:15:30.545Z,991.5
2022-11-01T07:17:57.230Z,991.8
2022-11-01T07:20:23.789Z,991.7
2022-11-01T07:22:50.417Z,991.8
2022-11-01T07:25:17.047Z,991.9
2022-11-01T07:27:43.655Z,991.8
2022-11-01T07:32:36.896Z,991.8
2022-11-01T07:35:02.037Z,991.8
2022-11-01T07:37:27.166Z,991.7
2022-11-01T07:39:53.782Z,991.7
2022-11-01T07:42:20.487Z,991.6
2022-11-01T07:44:47.021Z,991.7
2022-11-01T07:47:13.648Z,991.7
2022-11-01T07:49:40.264Z,991.9
2022-11-01T07:52:06.892Z,992
2022-11-01T07:54:33.520Z,991.9
2022-11-01T07:57:00.215Z,991.9
2022-11-01T07:59:26.789Z,992
2022-11-01T08:01:53.424Z,991.9
2022-11-01T08:04:18.521Z,991.9
2022-11-01T08:06:43.685Z,991.9
2022-11-01T08:09:10.308Z,992
2022-11-01T08:11:36.974Z,992
2022-11-01T08:16:30.131Z,992
2022-11-01T08:18:56.768Z,992.2
2022-11-01T08:21:23.424Z,992.2
2022-11-01T08:23:49.998Z,992.2
2022-11-01T08:26:16.674Z,992.2
2022-11-01T08:28:43.262Z,992.2
2022-11-01T08:31:09.922Z,992.2
2022-11-01T08:33:36.513Z,992.2
2022-11-01T08:36:03.143Z,992.3
2022-11-01T08:38:28.295Z,992.3
2022-11-01T08:40:54.846Z,992.4
2022-11-01T08:43:21.514Z,992.3
2022-11-01T08:45:48.101Z,992.4
2022-11-01T08:48:14.772Z,992.4
2022-11-01T08:50:41.349Z,992.4
2022-11-01T08:53:07.968Z,992.5
2022-11-01T08:55:34.643Z,992.3
2022-11-01T08:57:59.769Z,992.4
2022-11-01T09:00:24.851Z,992.4
2022-11-01T09:02:51.518Z,992.4
2022-11-01T09:05:18.160Z,992.4
2022-11-01T09:07:44.823Z,992.4
2022-11-01T09:10:11.424Z,992.4
2022-11-01T09:12:37.973Z,992.4
2022-11-01T09:15:04.601Z,992.5
2022-11-01T09:17:31.266Z,992.4
2022-11-01T09:19:57.843Z,992.5
2022-11-01T09:22:24.474Z,992.5
2022-11-01T09:24:51.116Z,992.6
2022-11-01T09:27:17.705Z,992.7
2022-11-01T09:29:44.355Z,992.6
2022-11-01T09:32:09.472Z,992.7
2022-11-01T09:34:36.101Z,992.7
2022-11-01T09:37:02.768Z,992.7
2022-11-01T09:39:29.373Z,992.7
2022-11-01T09:41:55.942Z,992.8
2022-11-01T09:44:22.571Z,992.7
2022-11-01T09:46:49.234Z,992.6
2022-11-01T09:49:15.807Z,992.6
2022-11-01T09:51:42.489Z,992.6
2022-11-01T09:54:09.148Z,992.7
2022-11-01T09:56:35.684Z,992.7
2022-11-01T09:59:02.325Z,992.7
2022-11-01T10:01:29.001Z,992.7
2022-11-01T10:03:54.153Z,992.7
2022-11-01T10:06:20.719Z,992.7
2022-11-01T10:08:47.382Z,992.7
2022-11-01T10:11:13.990Z,992.7
2022-11-01T10:13:40.573Z,992.6
2022-11-01T10:16:07.203Z,992.7
2022-11-01T10:18:33.782Z,992.7
2022-11-01T10:21:00.424Z,992.6
2022-11-01T10:23:27.033Z,992.7
2022-11-01T10:25:53.655Z,992.7
2022-11-01T10:28:20.379Z,992.6
2022-11-01T10:30:46.949Z,992.7
2022-11-01T10:33:13.583Z,992.6
2022-11-01T10:35:38.674Z,992.6
2022-11-01T10:38:05.260Z,992.6
2022-11-01T10:40:31.919Z,992.6
2022-11-01T10:42:58.512Z,992.6
2022-11-01T10:45:25.262Z,992.6
2022-11-01T10:47:51.761Z,992.6
2022-11-01T10:50:18.389Z,992.6
2022-11-01T10:52:45.002Z,992.6
2022-11-01T10:55:11.641Z,992.5
2022-11-01T10:57:38.250Z,992.5
2022-11-01T11:00:04.904Z,992.6
2022-11-01T11:02:31.491Z,992.6
2022-11-01T11:04:58.274Z,992.6
2022-11-01T11:07:23.243Z,992.6
2022-11-01T11:09:50.033Z,992.6
2022-11-01T11:12:16.648Z,992.6
2022-11-01T11:14:43.252Z,992.6
2022-11-01T11:17:09.835Z,992.6
2022-11-01T11:19:36.500Z,992.6
2022-11-01T11:22:03.110Z,992.6
2022-11-01T11:24:29.768Z,992.6
2022-11-01T11:26:56.222Z,992.6
2022-11-01T11:29:23.034Z,992.6
2022-11-01T11:31:49.606Z,992.6
2022-11-01T11:34:16.272Z,992.6
2022-11-01T11:36:42.834Z,992.5
2022-11-01T11:39:07.972Z,992.5
2022-11-01T11:41:34.587Z,992.5
2022-11-01T11:44:01.258Z,992.5
2022-11-01T11:46:27.828Z,992.5
2022-11-01T11:48:54.473Z,992.5
2022-11-01T11:51:21.106Z,992.5
2022-11-01T11:53:47.577Z,992.5
2022-11-01T11:56:14.285Z,992.5
2022-11-01T11:58:40.949Z,992.4
2022-11-01T12:01:07.578Z,992.4
2022-11-01T12:03:34.168Z,992.5
2022-11-01T12:06:00.762Z,992.4
2022-11-01T12:08:27.388Z,992.5
2022-11-01T12:10:52.549Z,992.6
2022-11-01T12:13:19.089Z,992.5
2022-11-01T12:15:45.691Z,992.5
2022-11-01T12:18:12.370Z,992.5
2022-11-01T12:20:39.028Z,992.6
2022-11-01T12:23:05.690Z,992.5
2022-11-01T12:25:32.301Z,992.5
2022-11-01T12:27:58.914Z,992.4
2022-11-01T12:30:25.426Z,992.4
2022-11-01T12:32:52.150Z,992.4
2022-11-01T12:37:45.364Z,992.4
2022-11-01T12:40:12.055Z,992.3
2022-11-01T12:42:37.071Z,992.3
2022-11-01T12:45:03.725Z,992.3
2022-11-01T12:47:30.328Z,992.4
2022-11-01T12:49:57.019Z,992.4
2022-11-01T12:52:23.595Z,992.5
2022-11-01T12:54:50.275Z,992.5
2022-11-01T12:57:16.835Z,992.5
2022-11-01T12:59:43.500Z,992.6
2022-11-01T13:02:10.131Z,992.5
2022-11-01T13:04:36.742Z,992.5
2022-11-01T13:07:03.334Z,992.6
2022-11-01T13:09:29.958Z,992.6
2022-11-01T13:11:56.624Z,992.6
2022-11-01T13:14:21.731Z,992.6
2022-11-01T13:16:48.400Z,992.6
2022-11-01T13:24:08.152Z,992.6
2022-11-01T13:26:34.760Z,992.6
2022-11-01T13:28:59.995Z,992.6
2022-11-01T13:31:25.092Z,992.7
2022-11-01T13:33:51.770Z,992.6
2022-11-01T13:36:18.326Z,992.6
2022-11-01T13:38:44.941Z,992.7
2022-11-01T13:41:11.594Z,992.6
2022-11-01T13:46:04.826Z,992.7
2022-11-01T13:48:31.405Z,992.6
2022-11-01T13:50:58.009Z,992.6
2022-11-01T13:53:24.643Z,992.7
2022-11-01T13:55:51.402Z,992.7
2022-11-01T14:00:43.911Z,992.7
2022-11-01T14:03:08.936Z,992.8
2022-11-01T14:05:34.061Z,992.8
2022-11-01T14:10:27.419Z,992.8
2022-11-01T14:12:53.929Z,992.8
2022-11-01T14:15:20.579Z,992.8
2022-11-01T14:17:47.175Z,992.8
2022-11-01T14:20:13.891Z,992.9
2022-11-01T14:22:40.440Z,992.8
2022-11-01T14:25:07.158Z,992.8
2022-11-01T14:27:33.657Z,992.8
2022-11-01T14:30:00.407Z,992.8
2022-11-01T14:32:26.893Z,992.8
2022-11-01T14:34:53.534Z,992.8
2022-11-01T14:37:20.185Z,992.8
2022-11-01T14:39:46.869Z,992.9
2022-11-01T14:42:11.900Z,992.9
2022-11-01T14:44:38.692Z,992.9
2022-11-01T14:47:05.258Z,992.9
2022-11-01T14:49:31.788Z,992.8
2022-11-01T14:51:58.424Z,992.9
2022-11-01T14:54:23.553Z,992.9
2022-11-01T14:59:15.294Z,992.9
2022-11-01T15:01:40.415Z,993
2022-11-01T15:04:05.556Z,993
2022-11-01T15:06:32.229Z,993
2022-11-01T15:08:58.857Z,993
2022-11-01T15:11:25.483Z,993.2
2022-11-01T15:13:52.048Z,993.2
2022-11-01T15:16:18.640Z,993.1
2022-11-01T15:18:45.278Z,993.2
2022-11-01T15:21:11.928Z,993.3
2022-11-01T15:23:38.505Z,993.3
2022-11-01T15:26:05.173Z,993.3
2022-11-01T15:28:30.263Z,993.3
2022-11-01T15:30:55.399Z,993.2
2022-11-01T15:33:22.041Z,993.2
2022-11-01T15:35:48.633Z,993.2
2022-11-01T15:38:15.278Z,993.3
2022-11-01T15:43:08.521Z,993.2
2022-11-01T15:48:01.782Z,993.2
2022-11-01T15:52:55.041Z,993.3
2022-11-01T15:57:48.279Z,993.3
2022-11-01T16:00:14.944Z,993.4
2022-11-01T16:02:40.008Z,993.4
2022-11-01T16:05:05.144Z,993.3
2022-11-01T16:07:30.287Z,993.4
2022-11-01T16:12:23.539Z,993.4
2022-11-01T16:14:50.128Z,993.5
2022-11-01T16:17:16.821Z,993.5
2022-11-01T16:22:09.999Z,993.5
2022-11-01T16:27:03.301Z,993.5
2022-11-01T16:29:29.869Z,993.5
2022-11-01T16:36:49.796Z,993.6
2022-11-01T16:39:14.857Z,993.7
2022-11-01T16:41:41.521Z,993.8
2022-11-01T16:46:33.261Z,993.8
2022-11-01T16:48:58.364Z,993.9
2022-11-01T16:51:23.519Z,993.9
2022-11-01T16:53:50.116Z,993.9
2022-11-01T16:56:16.740Z,993.9
2022-11-01T17:01:09.991Z,994.1
2022-11-01T17:06:03.231Z,994.1
2022-11-01T17:10:56.504Z,994.2
2022-11-01T17:15:49.725Z,994.2
2022-11-01T17:18:16.455Z,994.2
2022-11-01T17:20:42.965Z,994.3
2022-11-01T17:25:34.761Z,994.2
2022-11-01T17:30:27.964Z,994.2
2022-11-01T17:35:21.296Z,994.2
2022-11-01T17:40:14.454Z,994.3
2022-11-01T17:42:41.086Z,994.3
2022-11-01T17:45:07.763Z,994.4
2022-11-01T17:47:34.321Z,994.4
2022-11-01T17:50:00.949Z,994.3
2022-11-01T17:52:27.618Z,994.4
2022-11-01T17:54:54.243Z,994.4
2022-11-01T17:59:45.995Z,994.5
2022-11-01T18:02:12.624Z,994.5
2022-11-01T18:04:39.224Z,994.5
2022-11-01T18:07:05.854Z,994.5
2022-11-01T18:09:32.444Z,994.4
2022-11-01T18:11:59.136Z,994.5
2022-11-01T18:14:25.690Z,994.5
2022-11-01T18:16:52.349Z,994.6
2022-11-01T18:19:18.936Z,994.6
2022-11-01T18:21:45.540Z,994.6
2022-11-01T18:24:12.215Z,994.6
2022-11-01T18:26:38.803Z,994.5
2022-11-01T18:29:03.934Z,994.6
2022-11-01T18:31:29.218Z,994.6
2022-11-01T18:33:54.207Z,994.6
2022-11-01T18:36:20.806Z,994.6
2022-11-01T18:38:47.478Z,994.7
2022-11-01T18:41:14.094Z,994.6
2022-11-01T18:43:40.791Z,994.6
2022-11-01T18:48:33.927Z,994.7
2022-11-01T18:51:00.612Z,994.7
2022-11-01T18:53:27.211Z,994.8
2022-11-01T18:55:53.793Z,994.7
2022-11-01T18:58:20.529Z,994.7
2022-11-01T19:00:47.098Z,994.7
2022-11-01T19:03:13.687Z,994.6
2022-11-01T19:05:38.877Z,994.6
2022-11-01T19:08:05.460Z,994.7
2022-11-01T19:12:58.685Z,994.7
2022-11-01T19:15:23.785Z,994.7
2022-11-01T19:17:48.915Z,994.8
2022-11-01T19:20:15.577Z,994.7
2022-11-01T19:22:42.280Z,994.7
2022-11-01T19:25:08.834Z,994.7
2022-11-01T19:27:35.468Z,994.7
2022-11-01T19:32:28.637Z,994.7
2022-11-01T19:37:21.999Z,994.7
2022-11-01T19:39:48.504Z,994.7
2022-11-01T19:42:15.197Z,994.7
2022-11-01T19:44:41.798Z,994.7
2022-11-01T19:47:08.495Z,994.7
2022-11-01T19:52:00.124Z,994.6
2022-11-01T19:56:53.423Z,994.7
2022-11-01T19:59:20.112Z,994.7
2022-11-01T20:01:46.728Z,994.8
2022-11-01T20:04:13.332Z,994.8
2022-11-01T20:06:39.868Z,994.8
2022-11-01T20:09:06.524Z,994.8
2022-11-01T20:11:33.110Z,994.8
2022-11-01T20:16:26.447Z,994.8
2022-11-01T20:18:53.356Z,994.8
2022-11-01T20:26:12.890Z,994.9
2022-11-01T20:28:37.970Z,994.9
2022-11-01T20:31:04.662Z,994.9
2022-11-01T20:33:31.237Z,994.9
2022-11-01T20:35:57.854Z,995
2022-11-01T20:40:51.166Z,995
2022-11-01T20:43:17.714Z,995
2022-11-01T20:45:44.410Z,994.9
2022-11-01T20:48:11.048Z,995
2022-11-01T20:50:37.693Z,995
2022-11-01T21:00:24.200Z,995
2022-11-01T21:05:15.831Z,995
2022-11-01T21:07:42.452Z,995
2022-11-01T21:10:09.100Z,995
2022-11-01T21:15:02.337Z,995.1
2022-11-01T21:17:28.997Z,995
2022-11-01T21:19:55.569Z,994.9
2022-11-01T21:24:48.882Z,995
2022-11-01T21:29:42.063Z,995.1
2022-11-01T21:34:35.327Z,995
2022-11-01T21:39:27.071Z,995
2022-11-01T21:41:53.689Z,995.1
2022-11-01T21:44:20.306Z,995.1
2022-11-01T21:49:13.557Z,995.1
2022-11-01T21:54:06.833Z,995.1
2022-11-01T21:56:33.419Z,995.1
2022-11-01T21:59:00.059Z,995.1
2022-11-01T22:01:26.666Z,995.1
2022-11-01T22:03:53.287Z,995.2
2022-11-01T22:06:19.917Z,995.2
2022-11-01T22:08:45.073Z,995.1
2022-11-01T22:11:11.707Z,995.1
2022-11-01T22:13:38.340Z,995.3
2022-11-01T22:16:04.925Z,995.3
2022-11-01T22:18:31.531Z,995.2
2022-11-01T22:20:58.159Z,995.2
2022-11-01T22:23:24.778Z,995.3
2022-11-01T22:25:51.417Z,995.3
2022-11-01T22:28:18.083Z,995.3
2022-11-01T22:30:44.644Z,995.3
2022-11-01T22:33:11.274Z,995.3
2022-11-01T22:35:37.888Z,995.2
2022-11-01T22:38:04.523Z,995.2
2022-11-01T22:40:29.666Z,995.3
2022-11-01T22:42:54.778Z,995.3
2022-11-01T22:45:21.430Z,995.3
2022-11-01T22:47:48.030Z,995.4
2022-11-01T22:50:14.644Z,995.4
2022-11-01T22:52:41.309Z,995.4
2022-11-01T22:57:34.523Z,995.4
2022-11-01T23:00:01.228Z,995.4
2022-11-01T23:02:27.805Z,995.4
2022-11-01T23:04:52.904Z,995.5
2022-11-01T23:07:19.518Z,995.5
2022-11-01T23:09:46.166Z,995.5
2022-11-01T23:12:12.780Z,995.5
2022-11-01T23:14:39.438Z,995.6
2022-11-01T23:17:06.027Z,995.5
2022-11-01T23:19:32.639Z,995.5
2022-11-01T23:21:59.315Z,995.6
2022-11-01T23:24:25.964Z,995.6
2022-11-01T23:26:52.525Z,995.6
2022-11-01T23:29:19.226Z,995.5
2022-11-01T23:31:45.767Z,995.6
2022-11-01T23:34:10.917Z,995.6
2022-11-01T23:36:37.581Z,995.7
2022-11-01T23:39:02.733Z,995.7
2022-11-01T23:41:29.259Z,995.8
2022-11-01T23:43:55.938Z,995.8
2022-11-01T23:46:22.543Z,995.8
2022-11-01T23:48:49.125Z,995.8
2022-11-01T23:51:15.789Z,995.8
2022-11-01T23:53:42.390Z,995.8
2022-11-01T23:56:09.006Z,995.8
